Observation data for Guthrie on 05/27/2019      Previous  Date  Next       Current Mesonet Observations  Soil Data  Daily Summary Page  Observations in Plain Language
KPFS 270500Z 10006KT 22/18 A2986 RMK A01 T02160175  RH  082%=      5-min Rain = 0
KPFS 270505Z 09005KT 22/18 A2986 RMK A01 T02150175  RH  082%=      5-min Rain = 0
KPFS 270510Z 09005KT 21/18 A2986 RMK A01 T02130175  RH  083%=      5-min Rain = 0
KPFS 270515Z 11004KT 21/18 A2986 RMK A01 T02130175  RH  083%=      5-min Rain = 0
KPFS 270520Z 14004KT 21/18 A2986 RMK A01 T02130175  RH  083%=      5-min Rain = 0
KPFS 270525Z 14005KT 21/17 A2986 RMK A01 T02090174  RH  084%=      5-min Rain = 0
KPFS 270530Z 14005KT 21/17 A2986 RMK A01 T02070173  RH  085%=      5-min Rain = 0
KPFS 270535Z 14005KT 20/17 A2986 RMK A01 T02030172  RH  087%=      5-min Rain = 0
KPFS 270540Z 14007KT 20/18 A2985 RMK A01 T02030175  RH  088%=      5-min Rain = 0
KPFS 270545Z 14008KT 20/18 A2985 RMK A01 T02040176  RH  088%=      5-min Rain = 0
KPFS 270550Z 14008KT 20/18 A2984 RMK A01 T02040176  RH  088%=      5-min Rain = 0
KPFS 270555Z 14008KT 20/18 A2984 RMK A01 T02040176  RH  088%=      5-min Rain = 0
KPFS 270600Z 14008KT 20/18 A2984 RMK A01 T02030175  RH  088%=      5-min Rain = 0
KPFS 270605Z 14006KT 20/18 A2984 RMK A01 T02020175  RH  089%=      5-min Rain = 0
KPFS 270610Z 15004KT 20/18 A2984 RMK A01 T02010175  RH  089%=      5-min Rain = 0
KPFS 270615Z 15004KT 20/17 A2984 RMK A01 T02000174  RH  089%=      5-min Rain = 0
KPFS 270620Z 14006KT 20/17 A2984 RMK A01 T01990174  RH  090%=      5-min Rain = 0
KPFS 270625Z 14007KT 20/17 A2984 RMK A01 T01990174  RH  090%=      5-min Rain = 0
KPFS 270630Z 14007KT 20/18 A2983 RMK A01 T02000175  RH  090%=      5-min Rain = 0
KPFS 270635Z 13009KT 20/18 A2983 RMK A01 T02010176  RH  090%=      5-min Rain = 0
KPFS 270640Z 13008KT 20/18 A2983 RMK A01 T02020176  RH  090%=      5-min Rain = 0
KPFS 270645Z 13005KT 20/18 A2983 RMK A01 T02030176  RH  089%=      5-min Rain = 0
KPFS 270650Z 14002KT 20/18 A2984 RMK A01 T02020175  RH  089%=      5-min Rain = 0
KPFS 270655Z 13000KT 20/17 A2984 RMK A01 T02010174  RH  089%=      5-min Rain = 0
KPFS 270700Z 15004KT 20/17 A2983 RMK A01 T01990173  RH  089%=      5-min Rain = 0
KPFS 270705Z 14006KT 20/17 A2983 RMK A01 T01990174  RH  090%=      5-min Rain = 0
KPFS 270710Z 16004KT 20/18 A2983 RMK A01 T02000175  RH  090%=      5-min Rain = 0
KPFS 270715Z 16005KT 20/17 A2983 RMK A01 T01980173  RH  090%=      5-min Rain = 0
KPFS 270720Z 15006KT 20/17 A2983 RMK A01 T01970173  RH  091%=      5-min Rain = 0
KPFS 270725Z 15006KT 20/17 A2983 RMK A01 T01950172  RH  091%=      5-min Rain = 0
KPFS 270730Z 16005KT 19/17 A2983 RMK A01 T01940173  RH  092%=      5-min Rain = 0
KPFS 270735Z 17005KT 19/17 A2983 RMK A01 T01940173  RH  092%=      5-min Rain = 0
KPFS 270740Z 17005KT 19/17 A2983 RMK A01 T01940173  RH  092%=      5-min Rain = 0
KPFS 270745Z 17004KT 19/17 A2983 RMK A01 T01930173  RH  092%=      5-min Rain = 0
KPFS 270750Z 16005KT 19/17 A2983 RMK A01 T01930173  RH  093%=      5-min Rain = 0
KPFS 270755Z 28005KT 19/17 A2985 RMK A01 T01890169  RH  092%=      5-min Rain = 0
KPFS 270800Z 28005KT 18/16 A2986 RMK A01 T01830164  RH  093%=      5-min Rain = 0
KPFS 270805Z 17004KT 19/17 A2984 RMK A01 T01850167  RH  094%=      5-min Rain = 0
KPFS 270810Z 17005KT 19/17 A2984 RMK A01 T01870170  RH  094%=      5-min Rain = 0
KPFS 270815Z 26003KT 19/17 A2986 RMK A01 T01880171  RH  094%=      5-min Rain = 0
KPFS 270820Z 19002KT 19/17 A2986 RMK A01 T01870170  RH  094%=      5-min Rain = 0
KPFS 270825Z 16005KT 19/17 A2984 RMK A01 T01890172  RH  094%=      5-min Rain = 0
KPFS 270830Z 21003KT 19/17 A2985 RMK A01 T01880171  RH  094%=      5-min Rain = 0
KPFS 270835Z 19001KT 19/17 A2985 RMK A01 T01900172  RH  094%=      5-min Rain = 0
KPFS 270840Z 16001KT 19/17 A2985 RMK A01 T01910173  RH  094%=      5-min Rain = 0
KPFS 270845Z 15005KT 19/17 A2984 RMK A01 T01910174  RH  094%=      5-min Rain = 0
KPFS 270850Z 17006KT 19/18 A2984 RMK A01 T01930175  RH  094%=      5-min Rain = 0
KPFS 270855Z 16005KT 20/18 A2984 RMK A01 T01950176  RH  094%=      5-min Rain = 0
KPFS 270900Z 15006KT 20/18 A2984 RMK A01 T01950176  RH  094%=      5-min Rain = 0
KPFS 270905Z 15005KT 20/18 A2984 RMK A01 T01950176  RH  093%=      5-min Rain = 0
KPFS 270910Z 14004KT 20/18 A2984 RMK A01 T01960176  RH  093%=      5-min Rain = 0
KPFS 270915Z 14005KT 20/18 A2984 RMK A01 T01960177  RH  093%=      5-min Rain = 0
KPFS 270920Z 14007KT 20/18 A2984 RMK A01 T01970177  RH  093%=      5-min Rain = 0
KPFS 270925Z 14008KT 20/18 A2983 RMK A01 T01990178  RH  093%=      5-min Rain = 0
KPFS 270930Z 15008KT 20/18 A2983 RMK A01 T02010179  RH  092%=      5-min Rain = 0
KPFS 270935Z 15008KT 20/18 A2983 RMK A01 T02030181  RH  091%=      5-min Rain = 0
KPFS 270940Z 15008KT 21/18 A2983 RMK A01 T02050180  RH  091%=      5-min Rain = 0
KPFS 270945Z 15008KT 21/18 A2983 RMK A01 T02050180  RH  090%=      5-min Rain = 0
KPFS 270950Z 15008KT 21/18 A2984 RMK A01 T02060180  RH  090%=      5-min Rain = 0
KPFS 270955Z 15007KT 21/18 A2984 RMK A01 T02060180  RH  090%=      5-min Rain = 0
KPFS 271000Z 14007KT 21/18 A2984 RMK A01 T02060180  RH  090%=      5-min Rain = 0
KPFS 271005Z 14007KT 21/18 A2984 RMK A01 T02060181  RH  090%=      5-min Rain = 0
KPFS 271010Z 14008KT 21/18 A2984 RMK A01 T02060181  RH  090%=      5-min Rain = 0
KPFS 271015Z 14008KT 21/18 A2984 RMK A01 T02060181  RH  090%=      5-min Rain = 0
KPFS 271020Z 14009KT 21/18 A2984 RMK A01 T02060180  RH  090%=      5-min Rain = 0
KPFS 271025Z 15009KT 21/18 A2984 RMK A01 T02060180  RH  090%=      5-min Rain = 0
KPFS 271030Z 15009KT 21/18 A2984 RMK A01 T02060180  RH  090%=      5-min Rain = 0
KPFS 271035Z 15009KT 21/18 A2983 RMK A01 T02050181  RH  090%=      5-min Rain = 0
KPFS 271040Z 15008KT 21/18 A2983 RMK A01 T02050181  RH  091%=      5-min Rain = 0
KPFS 271045Z 15008KT 20/18 A2983 RMK A01 T02040181  RH  091%=      5-min Rain = 0
KPFS 271050Z 14008KT 20/18 A2983 RMK A01 T02040181  RH  091%=      5-min Rain = 0
KPFS 271055Z 14008KT 21/18 A2984 RMK A01 T02050182  RH  091%=      5-min Rain = 0
KPFS 271100Z 14008KT 21/18 A2984 RMK A01 T02050182  RH  091%=      5-min Rain = 0
KPFS 271105Z 14008KT 21/18 A2984 RMK A01 T02050182  RH  092%=      5-min Rain = 0
KPFS 271110Z 14008KT 21/18 A2984 RMK A01 T02050183  RH  092%=      5-min Rain = 0
KPFS 271115Z 14008KT 21/18 A2984 RMK A01 T02060183  RH  092%=      5-min Rain = 0
KPFS 271120Z 15009KT 21/18 A2983 RMK A01 T02060183  RH  092%=      5-min Rain = 0
KPFS 271125Z 15009KT 21/18 A2983 RMK A01 T02060183  RH  091%=      5-min Rain = 0
KPFS 271130Z 15010KT 21/18 A2983 RMK A01 T02060183  RH  092%=      5-min Rain = 0
KPFS 271135Z 15010KT 21/18 A2983 RMK A01 T02060183  RH  092%=      5-min Rain = 0
KPFS 271140Z 15009KT 21/18 A2983 RMK A01 T02060183  RH  091%=      5-min Rain = 0
KPFS 271145Z 15008KT 21/18 A2984 RMK A01 T02060183  RH  091%=      5-min Rain = 0
KPFS 271150Z 15008KT 21/18 A2984 RMK A01 T02060184  RH  092%=      5-min Rain = 0
KPFS 271155Z 15008KT 21/18 A2984 RMK A01 T02070184  RH  092%=      5-min Rain = 0
KPFS 271200Z 15009KT 21/19 A2984 RMK A01 T02080185  RH  092%=      5-min Rain = 0
KPFS 271205Z 15009KT 21/19 A2984 RMK A01 T02080186  RH  092%=      5-min Rain = 0
KPFS 271210Z 15010KT 21/19 A2984 RMK A01 T02090186  RH  091%=      5-min Rain = 0
KPFS 271215Z 15009KT 21/19 A2984 RMK A01 T02100187  RH  091%=      5-min Rain = 0
KPFS 271220Z 15009KT 21/19 A2984 RMK A01 T02110187  RH  091%=      5-min Rain = 0
KPFS 271225Z 15011KT 21/19 A2984 RMK A01 T02130188  RH  091%=      5-min Rain = 0
KPFS 271230Z 16011KT 21/19 A2984 RMK A01 T02140189  RH  090%=      5-min Rain = 0
KPFS 271235Z 16011KT 22/19 A2984 RMK A01 T02150189  RH  090%=      5-min Rain = 0
KPFS 271240Z 16010KT 22/19 A2984 RMK A01 T02160189  RH  089%=      5-min Rain = 0
KPFS 271245Z 16010KT 22/19 A2985 RMK A01 T02170190  RH  089%=      5-min Rain = 0
KPFS 271250Z 16009KT 22/19 A2985 RMK A01 T02180190  RH  089%=      5-min Rain = 0
KPFS 271255Z 16009KT 22/19 A2985 RMK A01 T02190191  RH  089%=      5-min Rain = 0
KPFS 271300Z 16010KT 22/19 A2985 RMK A01 T02190191  RH  089%=      5-min Rain = 0
KPFS 271305Z 16011KT 22/19 A2985 RMK A01 T02210191  RH  088%=      5-min Rain = 0
KPFS 271310Z 16013KT 22/19 A2985 RMK A01 T02220191  RH  088%=      5-min Rain = 0
KPFS 271315Z 16010G15KT 22/19 A2985 RMK A01 T02240192  RH  087%=      5-min Rain = 0
KPFS 271320Z 17011KT 23/19 A2985 RMK A01 T02250192  RH  086%=      5-min Rain = 0
KPFS 271325Z 17011KT 23/19 A2985 RMK A01 T02270192  RH  086%=      5-min Rain = 0
KPFS 271330Z 17011KT 23/19 A2985 RMK A01 T02290192  RH  084%=      5-min Rain = 0
KPFS 271335Z 17011KT 23/19 A2985 RMK A01 T02290192  RH  084%=      5-min Rain = 0
KPFS 271340Z 17012G18KT 23/19 A2985 RMK A01 T02300191  RH  084%=      5-min Rain = 0
KPFS 271345Z 17013KT 23/19 A2985 RMK A01 T02300191  RH  083%=      5-min Rain = 0
KPFS 271350Z 17012KT 23/19 A2985 RMK A01 T02310191  RH  083%=      5-min Rain = 0
KPFS 271355Z 17012KT 23/19 A2985 RMK A01 T02330192  RH  082%=      5-min Rain = 0
KPFS 271400Z 18010KT 24/19 A2985 RMK A01 T02370194  RH  081%=      5-min Rain = 0
KPFS 271405Z 18012KT 24/19 A2985 RMK A01 T02370192  RH  080%=      5-min Rain = 0
KPFS 271410Z 18012KT 24/19 A2985 RMK A01 T02370192  RH  081%=      5-min Rain = 0
KPFS 271415Z 18012G18KT 24/19 A2985 RMK A01 T02410194  RH  079%=      5-min Rain = 0
KPFS 271420Z 18013G20KT 24/19 A2985 RMK A01 T02410191  RH  078%=      5-min Rain = 0
KPFS 271425Z 18011KT 24/19 A2985 RMK A01 T02410194  RH  079%=      5-min Rain = 0
KPFS 271430Z 18013G18KT 24/19 A2985 RMK A01 T02420193  RH  078%=      5-min Rain = 0
KPFS 271435Z 19014KT 25/19 A2985 RMK A01 T02450193  RH  077%=      5-min Rain = 0
KPFS 271440Z 19016G24KT 25/19 A2985 RMK A01 T02460191  RH  075%=      5-min Rain = 0
KPFS 271445Z 19013G19KT 25/19 A2985 RMK A01 T02490191  RH  074%=      5-min Rain = 0
KPFS 271450Z 19014G20KT 25/19 A2985 RMK A01 T02490191  RH  074%=      5-min Rain = 0
KPFS 271455Z 19014G20KT 25/19 A2985 RMK A01 T02510191  RH  073%=      5-min Rain = 0
KPFS 271500Z 19016G21KT 26/19 A2984 RMK A01 T02550191  RH  071%=      5-min Rain = 0
KPFS 271505Z 20015G22KT 26/19 A2984 RMK A01 T02550189  RH  071%=      5-min Rain = 0
KPFS 271510Z 19016G22KT 26/19 A2984 RMK A01 T02570190  RH  070%=      5-min Rain = 0
KPFS 271515Z 19015G21KT 26/19 A2984 RMK A01 T02570189  RH  070%=      5-min Rain = 0
KPFS 271520Z 19015KT 26/19 A2984 RMK A01 T02560188  RH  070%=      5-min Rain = 0
KPFS 271525Z 19013G18KT 26/19 A2984 RMK A01 T02600190  RH  069%=      5-min Rain = 0
KPFS 271530Z 19014G20KT 26/19 A2984 RMK A01 T02550188  RH  070%=      5-min Rain = 0
KPFS 271535Z 19015KT 26/19 A2984 RMK A01 T02560187  RH  069%=      5-min Rain = 0
KPFS 271540Z 20013G18KT 26/19 A2984 RMK A01 T02560188  RH  070%=      5-min Rain = 0
KPFS 271545Z 20014KT 26/19 A2984 RMK A01 T02590188  RH  069%=      5-min Rain = 0
KPFS 271550Z 19016KT 26/19 A2984 RMK A01 T02600187  RH  068%=      5-min Rain = 0
KPFS 271555Z 19016G22KT 27/19 A2984 RMK A01 T02650188  RH  066%=      5-min Rain = 0
KPFS 271600Z 20015G20KT 27/19 A2984 RMK A01 T02670186  RH  065%=      5-min Rain = 0
KPFS 271605Z 20014G20KT 27/19 A2984 RMK A01 T02660189  RH  066%=      5-min Rain = 0
KPFS 271610Z 19015G20KT 27/19 A2984 RMK A01 T02700189  RH  065%=      5-min Rain = 0
KPFS 271615Z 21014G21KT 27/19 A2984 RMK A01 T02690188  RH  064%=      5-min Rain = 0
KPFS 271620Z 20016G21KT 27/19 A2984 RMK A01 T02730190  RH  064%=      5-min Rain = 0
KPFS 271625Z 20014G19KT 28/19 A2984 RMK A01 T02750190  RH  063%=      5-min Rain = 0
KPFS 271630Z 20011G17KT 28/19 A2984 RMK A01 T02750191  RH  064%=      5-min Rain = 0
KPFS 271635Z 20011KT 28/19 A2984 RMK A01 T02780193  RH  064%=      5-min Rain = 0
KPFS 271640Z 19012KT 28/19 A2984 RMK A01 T02750192  RH  064%=      5-min Rain = 0
KPFS 271645Z 19013KT 28/19 A2984 RMK A01 T02780191  RH  063%=      5-min Rain = 0
KPFS 271650Z 19012KT 28/19 A2984 RMK A01 T02780192  RH  063%=      5-min Rain = 0
KPFS 271655Z 19013G20KT 28/19 A2984 RMK A01 T02780192  RH  063%=      5-min Rain = 0
KPFS 271700Z 18012G18KT 28/19 A2983 RMK A01 T02800192  RH  062%=      5-min Rain = 0
KPFS 271705Z 18014G19KT 28/19 A2983 RMK A01 T02780191  RH  063%=      5-min Rain = 0
KPFS 271710Z 18011G18KT 28/19 A2983 RMK A01 T02780191  RH  063%=      5-min Rain = 0
KPFS 271715Z 18012G17KT 28/19 A2983 RMK A01 T02810194  RH  062%=      5-min Rain = 0
KPFS 271720Z 19012G17KT 28/19 A2983 RMK A01 T02820192  RH  061%=      5-min Rain = 0
KPFS 271725Z 18012G17KT 28/19 A2983 RMK A01 T02810191  RH  061%=      5-min Rain = 0
KPFS 271730Z 18013G18KT 28/19 A2983 RMK A01 T02830192  RH  061%=      5-min Rain = 0
KPFS 271735Z 17013G19KT 29/19 A2983 RMK A01 T02850193  RH  061%=      5-min Rain = 0
KPFS 271740Z 20011G17KT 29/19 A2983 RMK A01 T02870190  RH  059%=      5-min Rain = 0
KPFS 271745Z 18010G15KT 29/19 A2983 RMK A01 T02880194  RH  060%=      5-min Rain = 0
KPFS 271750Z 19013G19KT 29/19 A2983 RMK A01 T02880191  RH  059%=      5-min Rain = 0
KPFS 271755Z 18013G18KT 29/19 A2983 RMK A01 T02890191  RH  059%=      5-min Rain = 0
KPFS 271800Z 18012G17KT 29/20 A2983 RMK A01 T02910196  RH  060%=      5-min Rain = 0
KPFS 271805Z 18014KT 29/19 A2982 RMK A01 T02910193  RH  059%=      5-min Rain = 0
KPFS 271810Z 20013KT 29/19 A2982 RMK A01 T02920191  RH  057%=      5-min Rain = 0
KPFS 271815Z 20012KT 29/19 A2982 RMK A01 T02920192  RH  058%=      5-min Rain = 0
KPFS 271820Z 18012G17KT 29/19 A2982 RMK A01 T02930192  RH  058%=      5-min Rain = 0
KPFS 271825Z 17012G17KT 29/19 A2982 RMK A01 T02930191  RH  057%=      5-min Rain = 0
KPFS 271830Z 18012KT 30/19 A2981 RMK A01 T02950193  RH  057%=      5-min Rain = 0
KPFS 271835Z 18013G18KT 30/19 A2981 RMK A01 T02960191  RH  056%=      5-min Rain = 0
KPFS 271840Z 18013G18KT 30/19 A2981 RMK A01 T02970190  RH  056%=      5-min Rain = 0
KPFS 271845Z 18012G19KT 30/19 A2981 RMK A01 T02960190  RH  056%=      5-min Rain = 0
KPFS 271850Z 17011G17KT 30/19 A298 RMK A01 T02980192  RH  056%=      5-min Rain = 0
KPFS 271855Z 17012G17KT 30/19 A298 RMK A01 T02980190  RH  055%=      5-min Rain = 0
KPFS 271900Z 19012KT 30/19 A298 RMK A01 T02990189  RH  055%=      5-min Rain = 0
KPFS 271905Z 17009G15KT 30/19 A298 RMK A01 T03010190  RH  054%=      5-min Rain = 0
KPFS 271910Z 17010G16KT 30/19 A298 RMK A01 T03010188  RH  054%=      5-min Rain = 0
KPFS 271915Z 17013G18KT 30/19 A2979 RMK A01 T03020189  RH  054%=      5-min Rain = 0
KPFS 271920Z 17012KT 30/19 A2979 RMK A01 T03010187  RH  053%=      5-min Rain = 0
KPFS 271925Z 17013KT 30/19 A2979 RMK A01 T03020187  RH  053%=      5-min Rain = 0
KPFS 271930Z 17010G15KT 30/19 A2979 RMK A01 T03040192  RH  054%=      5-min Rain = 0
KPFS 271935Z 18012G17KT 31/19 A2979 RMK A01 T03060189  RH  052%=      5-min Rain = 0
KPFS 271940Z 18011G18KT 31/19 A2979 RMK A01 T03050187  RH  052%=      5-min Rain = 0
KPFS 271945Z 17011KT 31/19 A2979 RMK A01 T03060186  RH  051%=      5-min Rain = 0
KPFS 271950Z 17010G15KT 31/19 A2979 RMK A01 T03080191  RH  052%=      5-min Rain = 0
KPFS 271955Z 16009G15KT 31/19 A2978 RMK A01 T03080186  RH  051%=      5-min Rain = 0
KPFS 272000Z 18011G17KT 31/18 A2978 RMK A01 T03070184  RH  050%=      5-min Rain = 0
KPFS 272005Z 18011G16KT 31/18 A2978 RMK A01 T03090184  RH  050%=      5-min Rain = 0
KPFS 272010Z 17010G15KT 31/18 A2978 RMK A01 T03090183  RH  050%=      5-min Rain = 0
KPFS 272015Z 17011G17KT 31/19 A2977 RMK A01 T03130185  RH  049%=      5-min Rain = 0
KPFS 272020Z 17012G18KT 31/18 A2977 RMK A01 T03120179  RH  048%=      5-min Rain = 0
KPFS 272025Z 18011G17KT 31/18 A2977 RMK A01 T03100179  RH  048%=      5-min Rain = 0
KPFS 272030Z 18010G15KT 31/18 A2977 RMK A01 T03130181  RH  048%=      5-min Rain = 0
KPFS 272035Z 18011KT 31/18 A2976 RMK A01 T03140177  RH  046%=      5-min Rain = 0
KPFS 272040Z 17011G16KT 32/18 A2976 RMK A01 T03150176  RH  046%=      5-min Rain = 0
KPFS 272045Z 18011G16KT 32/18 A2975 RMK A01 T03150177  RH  046%=      5-min Rain = 0
KPFS 272050Z 18010G17KT 32/18 A2975 RMK A01 T03150179  RH  047%=      5-min Rain = 0
KPFS 272055Z 18011G16KT 32/18 A2975 RMK A01 T03160183  RH  048%=      5-min Rain = 0
KPFS 272100Z 16012G19KT 31/18 A2974 RMK A01 T03140181  RH  047%=      5-min Rain = 0
KPFS 272105Z 17011G16KT 32/18 A2974 RMK A01 T03150180  RH  047%=      5-min Rain = 0
KPFS 272110Z 17012G17KT 32/18 A2974 RMK A01 T03150178  RH  046%=      5-min Rain = 0
KPFS 272115Z 17010G15KT 32/18 A2974 RMK A01 T03170184  RH  048%=      5-min Rain = 0
KPFS 272120Z 17012KT 32/18 A2973 RMK A01 T03180181  RH  046%=      5-min Rain = 0
KPFS 272125Z 17013KT 32/18 A2973 RMK A01 T03160179  RH  046%=      5-min Rain = 0
KPFS 272130Z 17011G17KT 32/18 A2973 RMK A01 T03180181  RH  046%=      5-min Rain = 0
KPFS 272135Z 18012G18KT 32/17 A2972 RMK A01 T03160173  RH  045%=      5-min Rain = 0
KPFS 272140Z 18012G18KT 32/18 A2972 RMK A01 T03190177  RH  045%=      5-min Rain = 0
KPFS 272145Z 18012G17KT 32/18 A2972 RMK A01 T03170179  RH  046%=      5-min Rain = 0
KPFS 272150Z 18011G16KT 32/18 A2972 RMK A01 T03190183  RH  047%=      5-min Rain = 0
KPFS 272155Z 18012KT 32/18 A2972 RMK A01 T03200177  RH  045%=      5-min Rain = 0
KPFS 272200Z 17011G17KT 32/18 A2971 RMK A01 T03180180  RH  046%=      5-min Rain = 0
KPFS 272205Z 17013G19KT 32/18 A2971 RMK A01 T03180180  RH  046%=      5-min Rain = 0
KPFS 272210Z 17011G17KT 32/18 A2971 RMK A01 T03180180  RH  046%=      5-min Rain = 0
KPFS 272215Z 17013G18KT 32/18 A2971 RMK A01 T03190178  RH  045%=      5-min Rain = 0
KPFS 272220Z 17015KT 32/17 A2971 RMK A01 T03160172  RH  044%=      5-min Rain = 0
KPFS 272225Z 17012G17KT 32/17 A297 RMK A01 T03170172  RH  044%=      5-min Rain = 0
KPFS 272230Z 16013G19KT 32/17 A297 RMK A01 T03180172  RH  044%=      5-min Rain = 0
KPFS 272235Z 16015G20KT 32/17 A297 RMK A01 T03170170  RH  044%=      5-min Rain = 0
KPFS 272240Z 17014G19KT 32/17 A297 RMK A01 T03180169  RH  043%=      5-min Rain = 0
KPFS 272245Z 17013KT 32/17 A297 RMK A01 T03170169  RH  043%=      5-min Rain = 0
KPFS 272250Z 17014G19KT 32/17 A297 RMK A01 T03180170  RH  043%=      5-min Rain = 0
KPFS 272255Z 15012G18KT 32/19 A2969 RMK A01 T03190186  RH  048%=      5-min Rain = 0
KPFS 272300Z 15014G20KT 32/19 A2969 RMK A01 T03160186  RH  049%=      5-min Rain = 0
KPFS 272305Z 15015G20KT 31/18 A2969 RMK A01 T03130184  RH  049%=      5-min Rain = 0
KPFS 272310Z 16018G25KT 31/18 A2969 RMK A01 T03120182  RH  048%=      5-min Rain = 0
KPFS 272315Z 16013G20KT 31/19 A2969 RMK A01 T03130185  RH  049%=      5-min Rain = 0
KPFS 272320Z 16017G23KT 31/18 A2969 RMK A01 T03110181  RH  048%=      5-min Rain = 0
KPFS 272325Z 15016G22KT 31/18 A2969 RMK A01 T03050180  RH  050%=      5-min Rain = 0
KPFS 272330Z 16016G22KT 31/18 A2969 RMK A01 T03050181  RH  050%=      5-min Rain = 0
KPFS 272335Z 16016G23KT 31/18 A2969 RMK A01 T03090181  RH  049%=      5-min Rain = 0
KPFS 272340Z 15017G24KT 30/18 A2968 RMK A01 T03040180  RH  050%=      5-min Rain = 0
KPFS 272345Z 16017G22KT 31/18 A2968 RMK A01 T03060183  RH  050%=      5-min Rain = 0
KPFS 272350Z 16015G21KT 31/18 A2968 RMK A01 T03080183  RH  050%=      5-min Rain = 0
KPFS 272355Z 16015G23KT 31/19 A2968 RMK A01 T03070186  RH  051%=      5-min Rain = 0
KPFS 280000Z 16015G21KT 31/19 A2968 RMK A01 T03050186  RH  052%=      5-min Rain = 0
KPFS 280005Z 16014G20KT 31/19 A2968 RMK A01 T03050188  RH  052%=      5-min Rain = 0
KPFS 280010Z 17014KT 30/19 A2968 RMK A01 T03040188  RH  053%=      5-min Rain = 0
KPFS 280015Z 16013KT 30/19 A2968 RMK A01 T03030189  RH  054%=      5-min Rain = 0
KPFS 280020Z 16012G17KT 30/19 A2968 RMK A01 T03030191  RH  054%=      5-min Rain = 0
KPFS 280025Z 16014KT 30/19 A2967 RMK A01 T03020191  RH  054%=      5-min Rain = 0
KPFS 280030Z 16014KT 30/19 A2967 RMK A01 T03020190  RH  054%=      5-min Rain = 0
KPFS 280035Z 16013KT 30/19 A2967 RMK A01 T03000191  RH  055%=      5-min Rain = 0
KPFS 280040Z 16012G18KT 30/19 A2967 RMK A01 T02990191  RH  055%=      5-min Rain = 0
KPFS 280045Z 16013G18KT 30/19 A2967 RMK A01 T02970192  RH  056%=      5-min Rain = 0
KPFS 280050Z 16014KT 30/19 A2967 RMK A01 T02970191  RH  056%=      5-min Rain = 0
KPFS 280055Z 16012G18KT 30/19 A2967 RMK A01 T02950192  RH  057%=      5-min Rain = 0
KPFS 280100Z 16014KT 30/19 A2967 RMK A01 T02950191  RH  056%=      5-min Rain = 0
KPFS 280105Z 16014G20KT 30/19 A2967 RMK A01 T02950190  RH  056%=      5-min Rain = 0
KPFS 280110Z 15011KT 29/19 A2967 RMK A01 T02930191  RH  057%=      5-min Rain = 0
KPFS 280115Z 15010KT 29/19 A2967 RMK A01 T02900192  RH  059%=      5-min Rain = 0
KPFS 280120Z 14012G19KT 29/19 A2967 RMK A01 T02870192  RH  060%=      5-min Rain = 0
KPFS 280125Z 14013KT 28/19 A2967 RMK A01 T02840191  RH  060%=      5-min Rain = 0
KPFS 280130Z 14014G20KT 28/19 A2967 RMK A01 T02820189  RH  060%=      5-min Rain = 0
KPFS 280135Z 14013G18KT 28/19 A2967 RMK A01 T02800189  RH  061%=      5-min Rain = 0
KPFS 280140Z 14012G17KT 28/19 A2967 RMK A01 T02770188  RH  062%=      5-min Rain = 0
KPFS 280145Z 14012G17KT 28/19 A2967 RMK A01 T02750187  RH  062%=      5-min Rain = 0
KPFS 280150Z 14012KT 27/19 A2967 RMK A01 T02740187  RH  062%=      5-min Rain = 0
KPFS 280155Z 14012KT 27/19 A2967 RMK A01 T02710187  RH  063%=      5-min Rain = 0
KPFS 280200Z 14012KT 27/19 A2967 RMK A01 T02700187  RH  064%=      5-min Rain = 0
KPFS 280205Z 14011KT 27/19 A2967 RMK A01 T02680187  RH  064%=      5-min Rain = 0
KPFS 280210Z 14010KT 27/19 A2967 RMK A01 T02660187  RH  066%=      5-min Rain = 0
KPFS 280215Z 14010KT 26/19 A2967 RMK A01 T02640187  RH  066%=      5-min Rain = 0
KPFS 280220Z 15011KT 26/19 A2968 RMK A01 T02640187  RH  066%=      5-min Rain = 0
KPFS 280225Z 15010KT 26/19 A2968 RMK A01 T02630187  RH  067%=      5-min Rain = 0
KPFS 280230Z 15011KT 26/19 A2968 RMK A01 T02620187  RH  067%=      5-min Rain = 0
KPFS 280235Z 15010KT 26/19 A2968 RMK A01 T02610187  RH  067%=      5-min Rain = 0
KPFS 280240Z 15010G15KT 26/19 A2968 RMK A01 T02600187  RH  068%=      5-min Rain = 0
KPFS 280245Z 15011KT 26/19 A2968 RMK A01 T02600187  RH  068%=      5-min Rain = 0
KPFS 280250Z 15011G17KT 26/19 A2968 RMK A01 T02600187  RH  068%=      5-min Rain = 0
KPFS 280255Z 15012KT 26/19 A2968 RMK A01 T02600187  RH  068%=      5-min Rain = 0
KPFS 280300Z 15012G17KT 26/19 A2968 RMK A01 T02590188  RH  068%=      5-min Rain = 0
KPFS 280305Z 15012KT 26/19 A2968 RMK A01 T02580188  RH  069%=      5-min Rain = 0
KPFS 280310Z 15012KT 26/19 A2969 RMK A01 T02580188  RH  069%=      5-min Rain = 0
KPFS 280315Z 15012G17KT 26/19 A2969 RMK A01 T02570188  RH  070%=      5-min Rain = 0
KPFS 280320Z 15011G16KT 26/19 A2969 RMK A01 T02550188  RH  070%=      5-min Rain = 0
KPFS 280325Z 15011KT 25/19 A2969 RMK A01 T02540188  RH  071%=      5-min Rain = 0
KPFS 280330Z 14011KT 25/19 A2969 RMK A01 T02520188  RH  071%=      5-min Rain = 0
KPFS 280335Z 15011KT 25/19 A2969 RMK A01 T02510189  RH  072%=      5-min Rain = 0
KPFS 280340Z 15011KT 25/19 A2969 RMK A01 T02500189  RH  073%=      5-min Rain = 0
KPFS 280345Z 15011KT 25/19 A2969 RMK A01 T02490190  RH  073%=      5-min Rain = 0
KPFS 280350Z 15012KT 25/19 A2969 RMK A01 T02500191  RH  074%=      5-min Rain = 0
KPFS 280355Z 15012KT 25/19 A297 RMK A01 T02500191  RH  074%=      5-min Rain = 0
KPFS 280400Z 15013KT 25/19 A2969 RMK A01 T02510191  RH  074%=      5-min Rain = 0
KPFS 280405Z 15013KT 25/19 A2969 RMK A01 T02520191  RH  073%=      5-min Rain = 0
KPFS 280410Z 16013G19KT 25/19 A297 RMK A01 T02530191  RH  072%=      5-min Rain = 0
KPFS 280415Z 16013KT 25/19 A297 RMK A01 T02540190  RH  072%=      5-min Rain = 0
KPFS 280420Z 15012G17KT 25/19 A297 RMK A01 T02530190  RH  072%=      5-min Rain = 0
KPFS 280425Z 15011KT 25/19 A297 RMK A01 T02520190  RH  073%=      5-min Rain = 0
KPFS 280430Z 15011G16KT 25/19 A297 RMK A01 T02500191  RH  074%=      5-min Rain = 0
KPFS 280435Z 15011KT 25/19 A297 RMK A01 T02480191  RH  074%=      5-min Rain = 0
KPFS 280440Z 15010KT 25/19 A297 RMK A01 T02460191  RH  075%=      5-min Rain = 0
KPFS 280445Z 15009KT 24/19 A297 RMK A01 T02440191  RH  077%=      5-min Rain = 0
KPFS 280450Z 15010KT 24/19 A297 RMK A01 T02430191  RH  077%=      5-min Rain = 0
KPFS 280455Z 16010KT 24/19 A297 RMK A01 T02420191  RH  077%=      5-min Rain = 0

Page generated in 0.0452 seconds.